Ship Status Report: callsign 9HA4206

sailwx.info

Track history (hours):
 
Tides and Currents Weather Stations Pressure Air Temp Water Temp Dewpoint Dewpoint Depression Visibility Wind Speed Wind Dir Waves Ship Positions

Callsign 9HA4206 (name unknown)

Last reported at 2017-Oct-19 12:37 UTC. Time now 2017-Nov-22 20:39 UTC.
Position N 25°13' W 079°38'.
Warning: this ship's position is 34 days out of date.

Date/timePositionNaut miles runAvg speedWind from/ knotsBaromVisibWave heightAir tempDewpointWater temp
2017-Oct-19 12:37N 25°13' W 079°38'310.4
2017-Oct-19 12:22N 25°16' W 079°38'410.3
2017-Oct-19 12:00N 25°20' W 079°37'510.4
2017-Oct-19 11:29N 25°25' W 079°36'510.4
2017-Oct-19 11:00N 25°30' W 079°34'510.4
2017-Oct-19 10:30N 25°35' W 079°33'510.4
2017-Oct-19 10:00N 25°40' W 079°32'510.4
2017-Oct-19 09:30N 25°45' W 079°31'510.5
2017-Oct-19 09:01N 25°50' W 079°30'510.4
2017-Oct-19 08:30N 25°56' W 079°29'510.3
2017-Oct-19 08:00N 26°01' W 079°28'5 9.9
2017-Oct-19 07:30N 26°05' W 079°26'511.0
2017-Oct-19 07:00N 26°08' W 079°21'  
2017-Oct-15 17:55N 38°16' W 074°37'511.9
2017-Oct-15 17:30N 38°21' W 074°40'612.0
2017-Oct-15 16:59N 38°26' W 074°43'712.1
2017-Oct-15 16:26N 38°32' W 074°48'1913.2
2017-Oct-15 15:00N 38°47' W 075°02'1313.3
2017-Oct-15 14:00N 38°59' W 075°08'714.2
2017-Oct-15 13:30N 39°06' W 075°12'713.8
2017-Oct-15 13:01N 39°11' W 075°17'713.3
2017-Oct-15 12:30N 39°17' W 075°22'612.4
2017-Oct-15 12:00N 39°22' W 075°27'611.8
2017-Oct-15 11:31N 39°26' W 075°32'5 9.7
2017-Oct-15 11:00N 39°31' W 075°33'4 8.3
2017-Oct-15 10:30N 39°35' W 075°33'4 8.4
2017-Oct-15 10:00N 39°39' W 075°33'5 9.3
2017-Oct-15 09:30N 39°43' W 075°30'5 9.5
2017-Oct-15 09:00N 39°47' W 075°27'4 7.6
2017-Oct-15 08:30N 39°49' W 075°23'5 9.2
2017-Oct-15 08:00N 39°51' W 075°17'3 6.6
2017-Oct-15 07:30N 39°52' W 075°13'0 0.1
2017-Oct-15 07:00N 39°52' W 075°13'0 0.0
2017-Oct-15 06:30N 39°52' W 075°13'0 0.0
2017-Oct-15 06:00N 39°52' W 075°13'0 0.0
2017-Oct-15 05:30N 39°52' W 075°13'0 0.0
2017-Oct-15 05:00N 39°52' W 075°13'0 0.0
2017-Oct-15 04:30N 39°52' W 075°13'0 0.0
2017-Oct-15 04:00N 39°52' W 075°13'0 0.0
2017-Oct-15 03:30N 39°52' W 075°13'0 0.0
2017-Oct-15 03:00N 39°52' W 075°13'0 0.0
2017-Oct-15 02:27N 39°52' W 075°13'0 0.0
2017-Oct-15 02:00N 39°52' W 075°13'0 0.0
2017-Oct-15 01:30N 39°52' W 075°13'0 0.0
2017-Oct-15 01:00N 39°52' W 075°13'0 0.0
2017-Oct-15 00:30N 39°52' W 075°13'0 0.0
2017-Oct-15 00:00N 39°52' W 075°13'0 0.0
2017-Oct-14 23:30N 39°52' W 075°13'0 0.0
2017-Oct-14 23:00N 39°52' W 075°13'0 0.0
2017-Oct-14 22:30N 39°52' W 075°13'0 0.0
2017-Oct-14 22:00N 39°52' W 075°13'0 0.0
2017-Oct-14 21:30N 39°52' W 075°13'0 0.0
2017-Oct-14 21:00N 39°52' W 075°13'0 0.0
2017-Oct-14 20:30N 39°52' W 075°13'0 0.0
2017-Oct-14 20:00N 39°52' W 075°13'0 0.0
2017-Oct-14 19:30N 39°52' W 075°13'0 0.0
2017-Oct-14 19:00N 39°52' W 075°13'0 0.0
2017-Oct-14 18:30N 39°52' W 075°13'0 0.0
2017-Oct-14 18:00N 39°52' W 075°13'0 0.0
2017-Oct-14 17:30N 39°52' W 075°13'0 0.0
2017-Oct-14 17:00N 39°52' W 075°13'0 0.0
2017-Oct-14 16:30N 39°52' W 075°13'0 0.0
2017-Oct-14 15:57N 39°52' W 075°13'0 0.0
2017-Oct-14 15:30N 39°52' W 075°13'0 0.0
2017-Oct-14 15:00N 39°52' W 075°13'0 0.0
2017-Oct-14 14:30N 39°52' W 075°13'0 0.0
2017-Oct-14 14:00N 39°52' W 075°13'0 0.0
2017-Oct-14 13:30N 39°52' W 075°13'0 0.0
2017-Oct-14 13:00N 39°52' W 075°13'0 0.0
2017-Oct-14 12:30N 39°52' W 075°13'0 0.0
2017-Oct-14 12:00N 39°52' W 075°13'0 0.0
2017-Oct-14 11:30N 39°52' W 075°13'0 0.0
2017-Oct-14 11:00N 39°52' W 075°13'0 0.0
2017-Oct-14 10:30N 39°52' W 075°13'0 0.0
2017-Oct-14 10:00N 39°52' W 075°13'0 0.0
2017-Oct-14 09:30N 39°52' W 075°13'0 0.0
2017-Oct-14 09:00N 39°52' W 075°13'0 0.0
2017-Oct-14 08:30N 39°52' W 075°13'0 0.0
2017-Oct-14 08:00N 39°52' W 075°13'0 0.0
2017-Oct-14 07:30N 39°52' W 075°13'0 0.0
2017-Oct-14 07:00N 39°52' W 075°13'0 0.0
2017-Oct-14 06:30N 39°52' W 075°13'0 0.0
2017-Oct-14 06:00N 39°52' W 075°13'0 0.0
2017-Oct-14 05:30N 39°52' W 075°13'0 0.0
2017-Oct-14 04:57N 39°52' W 075°13'0 0.0
2017-Oct-14 04:30N 39°52' W 075°13'0 0.0
2017-Oct-14 04:00N 39°52' W 075°13'0 0.0
2017-Oct-14 03:27N 39°52' W 075°13'0 0.0
2017-Oct-14 02:31N 39°52' W 075°13'0 0.0
2017-Oct-14 02:31N 39°52' W 075°13'0 0.2
2017-Oct-14 02:00N 39°52' W 075°13'2 3.1
2017-Oct-14 01:28N 39°51' W 075°15'3 6.7
2017-Oct-14 01:01N 39°51' W 075°19'4 8.3
2017-Oct-14 00:30N 39°49' W 075°24'4 9.0
2017-Oct-14 00:00N 39°46' W 075°28'510.4
2017-Oct-13 23:30N 39°41' W 075°31'510.7
2017-Oct-13 23:01N 39°37' W 075°35'510.6
2017-Oct-13 22:30N 39°32' W 075°33'510.7
2017-Oct-13 22:00N 39°26' W 075°32'611.7
2017-Oct-13 21:30N 39°22' W 075°27'612.5
2017-Oct-13 21:01N 39°17' W 075°22'611.6
2017-Oct-13 20:30N 39°13' W 075°17'611.3
2017-Oct-13 20:00N 39°08' W 075°14'611.5
2017-Oct-13 19:30N 39°03' W 075°10'611.7
2017-Oct-13 19:00N 38°57' W 075°07'4 2.8
2017-Oct-13 17:44N 38°57' W 075°11'0 0.3
2017-Oct-13 17:13N 38°57' W 075°12'0 0.1
2017-Oct-13 16:49N 38°57' W 075°12'0 0.0
2017-Oct-13 16:19N 38°57' W 075°12'0 0.2
2017-Oct-13 15:49N 38°57' W 075°12'0 0.1
2017-Oct-13 15:25N 38°57' W 075°12'0 0.0
2017-Oct-13 14:55N 38°57' W 075°12'0 0.1
2017-Oct-13 14:25N 38°57' W 075°12'0 0.0
2017-Oct-13 13:55N 38°57' W 075°12'0 0.0
2017-Oct-13 13:25N 38°57' W 075°11'0 0.0
2017-Oct-13 12:55N 38°57' W 075°11'0 0.0
2017-Oct-13 12:25N 38°57' W 075°11'0 0.0
2017-Oct-13 11:55N 38°57' W 075°11'0 0.1
2017-Oct-13 11:25N 38°57' W 075°12'0 0.1
2017-Oct-13 10:55N 38°57' W 075°12'0 0.0
2017-Oct-13 10:19N 38°57' W 075°12'0 0.1
2017-Oct-13 09:55N 38°57' W 075°12'0 0.2
2017-Oct-13 09:25N 38°57' W 075°12'0 0.0
2017-Oct-13 08:43N 38°57' W 075°12'0 0.1
2017-Oct-13 07:43N 38°57' W 075°12'0 0.0
2017-Oct-13 04:07N 38°57' W 075°12'0 0.1
2017-Oct-13 02:43N 38°57' W 075°12'0 0.0
2017-Oct-13 00:55N 38°57' W 075°11'0 0.0
2017-Oct-12 23:37N 38°57' W 075°11'0 0.1
2017-Oct-12 23:19N 38°57' W 075°12'0 0.1
2017-Oct-12 22:55N 38°57' W 075°12'0 0.1
2017-Oct-12 22:19N 38°57' W 075°12'0 0.0
2017-Oct-12 21:49N 38°57' W 075°12'0 0.1
2017-Oct-12 21:25N 38°57' W 075°12'0 0.1
2017-Oct-12 20:43N 38°57' W 075°12'0 0.0
2017-Oct-12 20:25N 38°57' W 075°12'0 0.1
2017-Oct-12 19:55N 38°57' W 075°12'0 0.1
2017-Oct-12 19:13N 38°57' W 075°12'0 0.0
2017-Oct-12 18:55N 38°57' W 075°12'0 0.0
2017-Oct-12 18:19N 38°57' W 075°12'0 0.0
2017-Oct-12 17:55N 38°57' W 075°12'0 0.0
2017-Oct-12 17:13N 38°57' W 075°12'0 0.0
2017-Oct-12 16:55N 38°57' W 075°12'0 0.1
2017-Oct-12 16:25N 38°57' W 075°12'0 0.0
2017-Oct-12 15:55N 38°57' W 075°12'0 0.1
2017-Oct-12 15:25N 38°57' W 075°12'0 0.0
2017-Oct-12 14:31N 38°57' W 075°12'0 0.0
2017-Oct-12 14:19N 38°57' W 075°12'0 0.0
2017-Oct-12 13:55N 38°57' W 075°12'0 0.1
2017-Oct-12 13:25N 38°57' W 075°12'0 0.1
2017-Oct-12 12:55N 38°57' W 075°12'0 0.0
2017-Oct-12 12:25N 38°57' W 075°12'0 0.1
2017-Oct-12 11:43N 38°57' W 075°12'0 0.1
2017-Oct-12 11:25N 38°57' W 075°11'0 0.0
2017-Oct-12 10:55N 38°57' W 075°11'0 0.1
2017-Oct-12 10:25N 38°57' W 075°12'0 0.1
2017-Oct-12 09:55N 38°57' W 075°12'0 0.0
2017-Oct-12 09:25N 38°57' W 075°12'0 0.2
2017-Oct-12 08:49N 38°57' W 075°12'0 0.1
2017-Oct-12 08:25N 38°57' W 075°12'0 0.0
2017-Oct-12 07:55N 38°57' W 075°12'0 0.1
2017-Oct-12 07:19N 38°57' W 075°12'0 0.0
2017-Oct-12 06:49N 38°57' W 075°12'0 0.0
2017-Oct-12 06:25N 38°57' W 075°12'0 0.0
2017-Oct-12 03:13N 38°57' W 075°12'0 0.1
2017-Oct-12 01:55N 38°57' W 075°12'0 0.2
2017-Oct-12 01:25N 38°57' W 075°11'0 0.1
2017-Oct-12 00:55N 38°57' W 075°11'0 0.0
2017-Oct-12 00:25N 38°57' W 075°11'0 0.0
2017-Oct-11 23:55N 38°57' W 075°11'0 0.0
2017-Oct-11 23:19N 38°57' W 075°11'0 0.0
2017-Oct-11 22:55N 38°57' W 075°11'0 0.0
2017-Oct-11 22:25N 38°57' W 075°11'0 0.1
2017-Oct-11 21:55N 38°57' W 075°11'0 0.0
2017-Oct-11 21:25N 38°57' W 075°11'0 0.4
2017-Oct-11 20:55N 38°57' W 075°11'0 0.0
2017-Oct-10 23:55N 38°57' W 075°11'0 0.0
2017-Oct-10 23:25N 38°57' W 075°11'0 0.0
2017-Oct-10 22:55N 38°57' W 075°11'0 0.0
2017-Oct-10 22:25N 38°57' W 075°11'0 0.0
2017-Oct-10 21:55N 38°57' W 075°11'0 0.0
2017-Oct-10 21:25N 38°57' W 075°11'0 0.0
2017-Oct-10 20:49N 38°57' W 075°11'0 0.0
2017-Oct-10 20:25N 38°57' W 075°11'0 0.0
2017-Oct-10 19:55N 38°57' W 075°11'0 0.1
2017-Oct-10 19:25N 38°57' W 075°11'0 0.4
2017-Oct-10 18:55N 38°57' W 075°11'0 0.1
2017-Oct-10 17:13N 38°57' W 075°12'0 0.0
2017-Oct-10 13:01N 38°57' W 075°12'0 0.4
2017-Oct-10 12:55N 38°57' W 075°12'0 0.3
2017-Oct-10 12:19N 38°57' W 075°12'0 0.2
2017-Oct-10 11:55N 38°57' W 075°11'0 0.0
2017-Oct-10 11:13N 38°57' W 075°11'0 0.0
2017-Oct-10 10:55N 38°57' W 075°11'0 0.0
2017-Oct-10 10:19N 38°57' W 075°11'0 0.0
2017-Oct-10 09:55N 38°57' W 075°11'0 0.0
2017-Oct-10 09:19N 38°57' W 075°11'0 0.0
2017-Oct-10 08:25N 38°57' W 075°11'0 0.0
2017-Oct-10 07:55N 38°57' W 075°11'0 0.0
2017-Oct-10 07:19N 38°57' W 075°11'0 0.1
2017-Oct-10 06:49N 38°57' W 075°11'0 0.1
2017-Oct-10 02:49N 38°57' W 075°12'0 0.0
2017-Oct-10 02:13N 38°58' W 075°12'0 0.0
2017-Oct-10 01:55N 38°58' W 075°12'0 0.1
2017-Oct-10 01:13N 38°58' W 075°12'0 0.4
2017-Oct-10 00:55N 38°57' W 075°11'0 0.2
2017-Oct-10 00:25N 38°57' W 075°11'0 0.1
2017-Oct-09 23:55N 38°57' W 075°11'0 0.0
2017-Oct-09 23:25N 38°57' W 075°11'0 0.0
2017-Oct-09 22:55N 38°57' W 075°11'0 0.0
2017-Oct-09 22:25N 38°57' W 075°11'0 0.0
2017-Oct-09 21:49N 38°57' W 075°11'0 0.0
2017-Oct-09 21:25N 38°57' W 075°11'0 0.0
2017-Oct-09 20:55N 38°57' W 075°11'0 0.0
2017-Oct-09 20:25N 38°57' W 075°11'0 0.0
2017-Oct-09 19:55N 38°57' W 075°11'0 0.1
2017-Oct-09 19:25N 38°57' W 075°11'0 0.2
2017-Oct-09 18:55N 38°57' W 075°11'0 0.1
2017-Oct-09 18:25N 38°57' W 075°11'0 0.2
2017-Oct-09 17:55N 38°58' W 075°11'0 0.1
2017-Oct-09 17:25N 38°58' W 075°12'0 0.1
2017-Oct-09 16:31N 38°58' W 075°12'0 0.0
2017-Oct-09 16:25N 38°58' W 075°12'0 0.0
2017-Oct-09 15:55N 38°58' W 075°12'0 0.0
2017-Oct-09 15:19N 38°58' W 075°12'0 0.0
2017-Oct-09 14:49N 38°58' W 075°12'  
Track history (hours):
 
Tides and Currents Weather Stations Pressure Air Temp Water Temp Dewpoint Dewpoint Depression Visibility Wind Speed Wind Dir Waves Ship Positions

Callsign 9HA4206 (name unknown)

Last reported at 2017-Oct-19 12:37 UTC. Time now 2017-Nov-22 20:39 UTC.
Position N 25°13' W 079°38'.
Warning: this ship's position is 34 days out of date.

Date/timePositionNaut miles runAvg speedWind from/ knotsBaromVisibWave heightAir tempDewpointWater temp
2017-Oct-19 12:37N 25°13' W 079°38'310.4
2017-Oct-19 12:22N 25°16' W 079°38'410.3
2017-Oct-19 12:00N 25°20' W 079°37'510.4
2017-Oct-19 11:29N 25°25' W 079°36'510.4
2017-Oct-19 11:00N 25°30' W 079°34'510.4
2017-Oct-19 10:30N 25°35' W 079°33'510.4
2017-Oct-19 10:00N 25°40' W 079°32'510.4
2017-Oct-19 09:30N 25°45' W 079°31'510.5
2017-Oct-19 09:01N 25°50' W 079°30'510.4
2017-Oct-19 08:30N 25°56' W 079°29'510.3
2017-Oct-19 08:00N 26°01' W 079°28'5 9.9
2017-Oct-19 07:30N 26°05' W 079°26'511.0
2017-Oct-19 07:00N 26°08' W 079°21'  
2017-Oct-15 17:55N 38°16' W 074°37'511.9
2017-Oct-15 17:30N 38°21' W 074°40'612.0
2017-Oct-15 16:59N 38°26' W 074°43'712.1
2017-Oct-15 16:26N 38°32' W 074°48'1913.2
2017-Oct-15 15:00N 38°47' W 075°02'1313.3
2017-Oct-15 14:00N 38°59' W 075°08'714.2
2017-Oct-15 13:30N 39°06' W 075°12'713.8
2017-Oct-15 13:01N 39°11' W 075°17'713.3
2017-Oct-15 12:30N 39°17' W 075°22'612.4
2017-Oct-15 12:00N 39°22' W 075°27'611.8
2017-Oct-15 11:31N 39°26' W 075°32'5 9.7
2017-Oct-15 11:00N 39°31' W 075°33'4 8.3
2017-Oct-15 10:30N 39°35' W 075°33'4 8.4
2017-Oct-15 10:00N 39°39' W 075°33'5 9.3
2017-Oct-15 09:30N 39°43' W 075°30'5 9.5
2017-Oct-15 09:00N 39°47' W 075°27'4 7.6
2017-Oct-15 08:30N 39°49' W 075°23'5 9.2
2017-Oct-15 08:00N 39°51' W 075°17'3 6.6
2017-Oct-15 07:30N 39°52' W 075°13'0 0.1
2017-Oct-15 07:00N 39°52' W 075°13'0 0.0
2017-Oct-15 06:30N 39°52' W 075°13'0 0.0
2017-Oct-15 06:00N 39°52' W 075°13'0 0.0
2017-Oct-15 05:30N 39°52' W 075°13'0 0.0
2017-Oct-15 05:00N 39°52' W 075°13'0 0.0
2017-Oct-15 04:30N 39°52' W 075°13'0 0.0
2017-Oct-15 04:00N 39°52' W 075°13'0 0.0
2017-Oct-15 03:30N 39°52' W 075°13'0 0.0
2017-Oct-15 03:00N 39°52' W 075°13'0 0.0
2017-Oct-15 02:27N 39°52' W 075°13'0 0.0
2017-Oct-15 02:00N 39°52' W 075°13'0 0.0
2017-Oct-15 01:30N 39°52' W 075°13'0 0.0
2017-Oct-15 01:00N 39°52' W 075°13'0 0.0
2017-Oct-15 00:30N 39°52' W 075°13'0 0.0
2017-Oct-15 00:00N 39°52' W 075°13'0 0.0
2017-Oct-14 23:30N 39°52' W 075°13'0 0.0
2017-Oct-14 23:00N 39°52' W 075°13'0 0.0
2017-Oct-14 22:30N 39°52' W 075°13'0 0.0
2017-Oct-14 22:00N 39°52' W 075°13'0 0.0
2017-Oct-14 21:30N 39°52' W 075°13'0 0.0
2017-Oct-14 21:00N 39°52' W 075°13'0 0.0
2017-Oct-14 20:30N 39°52' W 075°13'0 0.0
2017-Oct-14 20:00N 39°52' W 075°13'0 0.0
2017-Oct-14 19:30N 39°52' W 075°13'0 0.0
2017-Oct-14 19:00N 39°52' W 075°13'0 0.0
2017-Oct-14 18:30N 39°52' W 075°13'0 0.0
2017-Oct-14 18:00N 39°52' W 075°13'0 0.0
2017-Oct-14 17:30N 39°52' W 075°13'0 0.0
2017-Oct-14 17:00N 39°52' W 075°13'0 0.0
2017-Oct-14 16:30N 39°52' W 075°13'0 0.0
2017-Oct-14 15:57N 39°52' W 075°13'0 0.0
2017-Oct-14 15:30N 39°52' W 075°13'0 0.0
2017-Oct-14 15:00N 39°52' W 075°13'0 0.0
2017-Oct-14 14:30N 39°52' W 075°13'0 0.0
2017-Oct-14 14:00N 39°52' W 075°13'0 0.0
2017-Oct-14 13:30N 39°52' W 075°13'0 0.0
2017-Oct-14 13:00N 39°52' W 075°13'0 0.0
2017-Oct-14 12:30N 39°52' W 075°13'0 0.0
2017-Oct-14 12:00N 39°52' W 075°13'0 0.0
2017-Oct-14 11:30N 39°52' W 075°13'0 0.0
2017-Oct-14 11:00N 39°52' W 075°13'0 0.0
2017-Oct-14 10:30N 39°52' W 075°13'0 0.0
2017-Oct-14 10:00N 39°52' W 075°13'0 0.0
2017-Oct-14 09:30N 39°52' W 075°13'0 0.0
2017-Oct-14 09:00N 39°52' W 075°13'0 0.0
2017-Oct-14 08:30N 39°52' W 075°13'0 0.0
2017-Oct-14 08:00N 39°52' W 075°13'0 0.0
2017-Oct-14 07:30N 39°52' W 075°13'0 0.0
2017-Oct-14 07:00N 39°52' W 075°13'0 0.0
2017-Oct-14 06:30N 39°52' W 075°13'0 0.0
2017-Oct-14 06:00N 39°52' W 075°13'0 0.0
2017-Oct-14 05:30N 39°52' W 075°13'0 0.0
2017-Oct-14 04:57N 39°52' W 075°13'0 0.0
2017-Oct-14 04:30N 39°52' W 075°13'0 0.0
2017-Oct-14 04:00N 39°52' W 075°13'0 0.0
2017-Oct-14 03:27N 39°52' W 075°13'0 0.0
2017-Oct-14 02:31N 39°52' W 075°13'0 0.0
2017-Oct-14 02:31N 39°52' W 075°13'0 0.2
2017-Oct-14 02:00N 39°52' W 075°13'2 3.1
2017-Oct-14 01:28N 39°51' W 075°15'3 6.7
2017-Oct-14 01:01N 39°51' W 075°19'4 8.3
2017-Oct-14 00:30N 39°49' W 075°24'4 9.0
2017-Oct-14 00:00N 39°46' W 075°28'510.4
2017-Oct-13 23:30N 39°41' W 075°31'510.7
2017-Oct-13 23:01N 39°37' W 075°35'510.6
2017-Oct-13 22:30N 39°32' W 075°33'510.7
2017-Oct-13 22:00N 39°26' W 075°32'611.7
2017-Oct-13 21:30N 39°22' W 075°27'612.5
2017-Oct-13 21:01N 39°17' W 075°22'611.6
2017-Oct-13 20:30N 39°13' W 075°17'611.3
2017-Oct-13 20:00N 39°08' W 075°14'611.5
2017-Oct-13 19:30N 39°03' W 075°10'611.7
2017-Oct-13 19:00N 38°57' W 075°07'4 2.8
2017-Oct-13 17:44N 38°57' W 075°11'0 0.3
2017-Oct-13 17:13N 38°57' W 075°12'0 0.1
2017-Oct-13 16:49N 38°57' W 075°12'0 0.0
2017-Oct-13 16:19N 38°57' W 075°12'0 0.2
2017-Oct-13 15:49N 38°57' W 075°12'0 0.1
2017-Oct-13 15:25N 38°57' W 075°12'0 0.0
2017-Oct-13 14:55N 38°57' W 075°12'0 0.1
2017-Oct-13 14:25N 38°57' W 075°12'0 0.0
2017-Oct-13 13:55N 38°57' W 075°12'0 0.0
2017-Oct-13 13:25N 38°57' W 075°11'0 0.0
2017-Oct-13 12:55N 38°57' W 075°11'0 0.0
2017-Oct-13 12:25N 38°57' W 075°11'0 0.0
2017-Oct-13 11:55N 38°57' W 075°11'0 0.1
2017-Oct-13 11:25N 38°57' W 075°12'0 0.1
2017-Oct-13 10:55N 38°57' W 075°12'0 0.0
2017-Oct-13 10:19N 38°57' W 075°12'0 0.1
2017-Oct-13 09:55N 38°57' W 075°12'0 0.2
2017-Oct-13 09:25N 38°57' W 075°12'0 0.0
2017-Oct-13 08:43N 38°57' W 075°12'0 0.1
2017-Oct-13 07:43N 38°57' W 075°12'0 0.0
2017-Oct-13 04:07N 38°57' W 075°12'0 0.1
2017-Oct-13 02:43N 38°57' W 075°12'0 0.0
2017-Oct-13 00:55N 38°57' W 075°11'0 0.0
2017-Oct-12 23:37N 38°57' W 075°11'0 0.1
2017-Oct-12 23:19N 38°57' W 075°12'0 0.1
2017-Oct-12 22:55N 38°57' W 075°12'0 0.1
2017-Oct-12 22:19N 38°57' W 075°12'0 0.0
2017-Oct-12 21:49N 38°57' W 075°12'0 0.1
2017-Oct-12 21:25N 38°57' W 075°12'0 0.1
2017-Oct-12 20:43N 38°57' W 075°12'0 0.0
2017-Oct-12 20:25N 38°57' W 075°12'0 0.1
2017-Oct-12 19:55N 38°57' W 075°12'0 0.1
2017-Oct-12 19:13N 38°57' W 075°12'0 0.0
2017-Oct-12 18:55N 38°57' W 075°12'0 0.0
2017-Oct-12 18:19N 38°57' W 075°12'0 0.0
2017-Oct-12 17:55N 38°57' W 075°12'0 0.0
2017-Oct-12 17:13N 38°57' W 075°12'0 0.0
2017-Oct-12 16:55N 38°57' W 075°12'0 0.1
2017-Oct-12 16:25N 38°57' W 075°12'0 0.0
2017-Oct-12 15:55N 38°57' W 075°12'0 0.1
2017-Oct-12 15:25N 38°57' W 075°12'0 0.0
2017-Oct-12 14:31N 38°57' W 075°12'0 0.0
2017-Oct-12 14:19N 38°57' W 075°12'0 0.0
2017-Oct-12 13:55N 38°57' W 075°12'0 0.1
2017-Oct-12 13:25N 38°57' W 075°12'0 0.1
2017-Oct-12 12:55N 38°57' W 075°12'0 0.0
2017-Oct-12 12:25N 38°57' W 075°12'0 0.1
2017-Oct-12 11:43N 38°57' W 075°12'0 0.1
2017-Oct-12 11:25N 38°57' W 075°11'0 0.0
2017-Oct-12 10:55N 38°57' W 075°11'0 0.1
2017-Oct-12 10:25N 38°57' W 075°12'0 0.1
2017-Oct-12 09:55N 38°57' W 075°12'0 0.0
2017-Oct-12 09:25N 38°57' W 075°12'0 0.2
2017-Oct-12 08:49N 38°57' W 075°12'0 0.1
2017-Oct-12 08:25N 38°57' W 075°12'0 0.0
2017-Oct-12 07:55N 38°57' W 075°12'0 0.1
2017-Oct-12 07:19N 38°57' W 075°12'0 0.0
2017-Oct-12 06:49N 38°57' W 075°12'0 0.0
2017-Oct-12 06:25N 38°57' W 075°12'0 0.0
2017-Oct-12 03:13N 38°57' W 075°12'0 0.1
2017-Oct-12 01:55N 38°57' W 075°12'0 0.2
2017-Oct-12 01:25N 38°57' W 075°11'0 0.1
2017-Oct-12 00:55N 38°57' W 075°11'0 0.0
2017-Oct-12 00:25N 38°57' W 075°11'0 0.0
2017-Oct-11 23:55N 38°57' W 075°11'0 0.0
2017-Oct-11 23:19N 38°57' W 075°11'0 0.0
2017-Oct-11 22:55N 38°57' W 075°11'0 0.0
2017-Oct-11 22:25N 38°57' W 075°11'0 0.1
2017-Oct-11 21:55N 38°57' W 075°11'0 0.0
2017-Oct-11 21:25N 38°57' W 075°11'0 0.4
2017-Oct-11 20:55N 38°57' W 075°11'0 0.0
2017-Oct-10 23:55N 38°57' W 075°11'0 0.0
2017-Oct-10 23:25N 38°57' W 075°11'0 0.0
2017-Oct-10 22:55N 38°57' W 075°11'0 0.0
2017-Oct-10 22:25N 38°57' W 075°11'0 0.0
2017-Oct-10 21:55N 38°57' W 075°11'0 0.0
2017-Oct-10 21:25N 38°57' W 075°11'0 0.0
2017-Oct-10 20:49N 38°57' W 075°11'0 0.0
2017-Oct-10 20:25N 38°57' W 075°11'0 0.0
2017-Oct-10 19:55N 38°57' W 075°11'0 0.1
2017-Oct-10 19:25N 38°57' W 075°11'0 0.4
2017-Oct-10 18:55N 38°57' W 075°11'0 0.1
2017-Oct-10 17:13N 38°57' W 075°12'0 0.0
2017-Oct-10 13:01N 38°57' W 075°12'0 0.4
2017-Oct-10 12:55N 38°57' W 075°12'0 0.3
2017-Oct-10 12:19N 38°57' W 075°12'0 0.2
2017-Oct-10 11:55N 38°57' W 075°11'0 0.0
2017-Oct-10 11:13N 38°57' W 075°11'0 0.0
2017-Oct-10 10:55N 38°57' W 075°11'0 0.0
2017-Oct-10 10:19N 38°57' W 075°11'0 0.0
2017-Oct-10 09:55N 38°57' W 075°11'0 0.0
2017-Oct-10 09:19N 38°57' W 075°11'0 0.0
2017-Oct-10 08:25N 38°57' W 075°11'0 0.0
2017-Oct-10 07:55N 38°57' W 075°11'0 0.0
2017-Oct-10 07:19N 38°57' W 075°11'0 0.1
2017-Oct-10 06:49N 38°57' W 075°11'0 0.1
2017-Oct-10 02:49N 38°57' W 075°12'0 0.0
2017-Oct-10 02:13N 38°58' W 075°12'0 0.0
2017-Oct-10 01:55N 38°58' W 075°12'0 0.1
2017-Oct-10 01:13N 38°58' W 075°12'0 0.4
2017-Oct-10 00:55N 38°57' W 075°11'0 0.2
2017-Oct-10 00:25N 38°57' W 075°11'0 0.1
2017-Oct-09 23:55N 38°57' W 075°11'0 0.0
2017-Oct-09 23:25N 38°57' W 075°11'0 0.0
2017-Oct-09 22:55N 38°57' W 075°11'0 0.0
2017-Oct-09 22:25N 38°57' W 075°11'0 0.0
2017-Oct-09 21:49N 38°57' W 075°11'0 0.0
2017-Oct-09 21:25N 38°57' W 075°11'0 0.0
2017-Oct-09 20:55N 38°57' W 075°11'0 0.0
2017-Oct-09 20:25N 38°57' W 075°11'0 0.0
2017-Oct-09 19:55N 38°57' W 075°11'0 0.1
2017-Oct-09 19:25N 38°57' W 075°11'0 0.2
2017-Oct-09 18:55N 38°57' W 075°11'0 0.1
2017-Oct-09 18:25N 38°57' W 075°11'0 0.2
2017-Oct-09 17:55N 38°58' W 075°11'0 0.1
2017-Oct-09 17:25N 38°58' W 075°12'0 0.1
2017-Oct-09 16:31N 38°58' W 075°12'0 0.0
2017-Oct-09 16:25N 38°58' W 075°12'0 0.0
2017-Oct-09 15:55N 38°58' W 075°12'0 0.0
2017-Oct-09 15:19N 38°58' W 075°12'0 0.0
2017-Oct-09 14:49N 38°58' W 075°12'  

Dump ship's entire track history